Time;durP1;ratioP1;P1;durP2;ratioP2;P2;SDS_P1;SDS_P2;PMS_P1;PMS_P2;Temp;Humidity;BMP_temperature;BMP_pressure;BME280_temperature;BME280_humidity;BME280_pressure;Samples;Min_cycle;Max_cycle;Signal;HPM_P1;HPM_P2
2021/01/28 00:03:10;;;;;;;17.00;7.72;;;;;;;4.99;61.52;100654.41;8000500;28;20040;-64
2021/01/28 00:07:04;;;;;;;11.48;6.40;;;;;;;4.98;61.79;100653.56;8003882;28;20041;-65
2021/01/28 00:10:57;;;;;;;10.02;6.70;;;;;;;4.99;61.21;100649.22;8004071;28;20049;-65
2021/01/28 00:14:56;;;;;;;10.68;6.43;;;;;;;5.00;61.45;100646.53;8001942;28;20033;-66
2021/01/28 00:18:49;;;;;;;13.65;6.57;;;;;;;5.02;61.35;100636.06;7999980;28;20386;-64
2021/01/28 00:22:42;;;;;;;13.93;7.00;;;;;;;5.01;61.25;100631.78;8002334;28;20608;-66
2021/01/28 00:26:36;;;;;;;12.10;6.55;;;;;;;5.02;61.11;100625.66;8002605;28;20071;-66
2021/01/28 00:30:35;;;;;;;9.43;5.40;;;;;;;5.02;61.10;100629.06;7998990;28;20048;-66
2021/01/28 00:34:28;;;;;;;10.95;6.18;;;;;;;4.99;61.37;100615.38;8002022;28;20033;-65
2021/01/28 00:38:28;;;;;;;12.57;6.30;;;;;;;5.02;61.43;100618.66;8002477;28;20095;-65
2021/01/28 00:42:23;;;;;;;13.77;5.78;;;;;;;5.01;61.28;100611.78;8002584;28;20041;-64
2021/01/28 00:46:16;;;;;;;8.85;5.47;;;;;;;5.01;61.34;100600.53;8000069;28;20053;-64
2021/01/28 00:50:15;;;;;;;12.23;5.30;;;;;;;4.97;61.08;100579.00;7984385;28;20136;-66
2021/01/28 00:54:09;;;;;;;11.63;5.75;;;;;;;5.02;61.15;100574.41;8002794;28;20025;-66
2021/01/28 00:58:05;;;;;;;9.07;5.25;;;;;;;5.03;61.29;100557.88;8002739;28;20064;-65
2021/01/28 01:01:59;;;;;;;12.55;6.07;;;;;;;5.06;61.29;100557.72;7998691;28;20051;-65
2021/01/28 01:05:53;;;;;;;9.98;5.40;;;;;;;5.06;61.00;100551.69;8002284;28;20494;-65
2021/01/28 01:09:47;;;;;;;12.80;5.03;;;;;;;5.00;61.16;100551.97;8002050;28;20025;-66
2021/01/28 01:13:43;;;;;;;8.52;5.03;;;;;;;5.04;61.19;100559.56;8002343;28;20037;-65
2021/01/28 01:17:50;;;;;;;6.70;4.35;;;;;;;5.03;61.38;100568.28;7981050;28;20128;-65
2021/01/28 01:21:52;;;;;;;8.85;4.88;;;;;;;5.02;61.49;100560.56;7983657;28;20047;-64
2021/01/28 01:25:48;;;;;;;9.23;5.10;;;;;;;5.02;61.46;100564.00;7983918;28;20029;-64
2021/01/28 01:29:41;;;;;;;8.68;4.55;;;;;;;4.99;61.52;100558.09;8001717;28;20051;-64
2021/01/28 01:33:59;;;;;;;7.88;5.10;;;;;;;4.99;61.27;100555.50;7949856;28;20091;-66
2021/01/28 01:37:57;;;;;;;5.78;4.07;;;;;;;5.04;61.37;100545.72;7970546;28;20033;-65
2021/01/28 01:41:51;;;;;;;8.23;3.78;;;;;;;5.04;61.40;100530.09;7952455;28;20037;-65
2021/01/28 01:45:55;;;;;;;7.80;3.70;;;;;;;5.05;61.53;100509.19;7952775;28;20045;-65
2021/01/28 01:49:49;;;;;;;10.95;5.22;;;;;;;4.99;61.18;100480.84;7977083;28;20037;-65
2021/01/28 01:54:01;;;;;;;6.20;4.13;;;;;;;5.06;61.29;100494.41;7998747;28;20041;-64
2021/01/28 01:58:05;;;;;;;7.55;4.45;;;;;;;5.04;61.08;100489.28;7999848;28;20076;-66
2021/01/28 02:02:14;;;;;;;9.27;4.75;;;;;;;5.05;61.26;100472.75;7995726;28;20041;-65
2021/01/28 02:06:39;;;;;;;10.00;4.85;;;;;;;5.06;61.26;100484.00;7969205;28;20073;-65
2021/01/28 02:10:53;;;;;;;9.65;4.80;;;;;;;5.01;61.27;100466.00;8001945;28;20033;-63
2021/01/28 02:14:57;;;;;;;12.15;5.47;;;;;;;5.06;61.17;100463.19;8004800;28;20040;-64
2021/01/28 02:19:26;;;;;;;6.47;4.30;;;;;;;5.07;61.38;100454.41;8001802;28;21690;-65
2021/01/28 02:24:00;;;;;;;7.43;4.78;;;;;;;5.07;61.28;100451.81;8005185;28;20024;-65
2021/01/28 02:27:59;;;;;;;8.13;4.75;;;;;;;5.07;61.12;100463.06;7997321;28;20169;-66
2021/01/28 02:32:22;;;;;;;7.97;4.72;;;;;;;5.08;61.32;100440.50;7992122;28;20049;-66
2021/01/28 02:36:44;;;;;;;8.32;4.53;;;;;;;5.09;61.12;100411.78;8006707;28;20044;-63
2021/01/28 02:41:04;;;;;;;7.50;4.80;;;;;;;5.10;61.03;100407.44;7991239;28;20045;-65
2021/01/28 02:45:16;;;;;;;10.27;5.05;;;;;;;5.10;61.23;100399.63;7985241;28;20116;-65
2021/01/28 02:49:44;;;;;;;7.85;4.03;;;;;;;5.09;61.24;100388.34;7954595;28;20103;-64
2021/01/28 02:53:44;;;;;;;7.65;4.75;;;;;;;5.10;61.20;100376.19;7988905;28;20036;-65
2021/01/28 02:57:40;;;;;;;6.53;4.47;;;;;;;5.10;61.05;100371.78;7972789;28;20037;-65
2021/01/28 03:01:37;;;;;;;10.02;5.13;;;;;;;5.10;61.13;100356.16;7969369;28;20037;-64
2021/01/28 03:05:32;;;;;;;6.45;4.38;;;;;;;5.10;61.27;100355.34;8006304;28;20029;-64
2021/01/28 03:09:28;;;;;;;7.47;4.53;;;;;;;5.10;61.14;100357.97;7988304;28;20044;-64
2021/01/28 03:13:53;;;;;;;6.35;4.35;;;;;;;5.12;60.98;100366.50;7996882;28;20075;-65
2021/01/28 03:18:01;;;;;;;6.20;4.22;;;;;;;5.07;61.02;100338.09;7985029;28;20036;-64
2021/01/28 03:21:58;;;;;;;6.15;4.65;;;;;;;5.10;60.95;100337.13;7988200;28;20037;-65
2021/01/28 03:25:59;;;;;;;9.75;5.05;;;;;;;5.12;61.09;100337.88;7988157;28;20116;-65
2021/01/28 03:29:53;;;;;;;8.85;4.85;;;;;;;5.13;61.22;100332.59;7985280;28;20044;-65
2021/01/28 03:33:47;;;;;;;8.10;4.82;;;;;;;5.12;61.07;100341.31;7936660;28;20041;-63
2021/01/28 03:37:44;;;;;;;9.00;4.33;;;;;;;5.10;61.44;100318.91;7939784;28;20037;-64
2021/01/28 03:41:40;;;;;;;13.45;4.07;;;;;;;5.09;61.11;100310.25;7955127;28;20029;-65
2021/01/28 03:45:33;;;;;;;7.43;4.25;;;;;;;5.11;61.17;100316.19;7970402;28;20257;-65
2021/01/28 03:49:26;;;;;;;4.47;3.35;;;;;;;5.09;61.37;100306.81;7954860;28;20457;-64
2021/01/28 03:53:37;;;;;;;5.18;3.60;;;;;;;5.09;61.34;100299.84;7964330;28;20424;-65
2021/01/28 03:57:47;;;;;;;5.03;3.90;;;;;;;5.06;61.70;100289.56;7954577;28;20037;-65
2021/01/28 04:01:47;;;;;;;7.40;3.45;;;;;;;5.09;61.16;100294.63;7936124;28;20041;-65
2021/01/28 04:06:10;;;;;;;7.38;3.92;;;;;;;5.08;61.30;100292.94;7917489;28;20076;-66
2021/01/28 04:10:27;;;;;;;5.68;3.88;;;;;;;5.03;61.44;100275.88;7954245;28;20042;-63
2021/01/28 04:14:25;;;;;;;6.70;3.33;;;;;;;5.11;61.45;100278.91;7937887;28;20045;-65
2021/01/28 04:18:28;;;;;;;6.80;3.50;;;;;;;5.09;61.57;100268.59;7968931;28;20607;-65
2021/01/28 04:22:32;;;;;;;4.85;3.58;;;;;;;5.06;61.25;100257.50;7954038;28;20686;-65
2021/01/28 04:26:27;;;;;;;6.25;4.22;;;;;;;5.06;61.33;100250.50;7954853;28;20067;-65
2021/01/28 04:30:30;;;;;;;10.43;3.65;;;;;;;5.03;61.29;100240.25;7957803;28;20562;-65
2021/01/28 04:34:27;;;;;;;6.85;4.38;;;;;;;4.98;61.26;100231.03;7985540;28;20041;-66
2021/01/28 04:38:23;;;;;;;4.95;3.63;;;;;;;4.92;61.21;100220.94;7986018;28;20536;-65
2021/01/28 04:42:48;;;;;;;6.03;3.58;;;;;;;4.92;61.33;100216.56;7985133;28;20037;-65
2021/01/28 04:46:56;;;;;;;5.93;2.97;;;;;;;4.89;61.24;100214.16;7982966;28;20045;-64
2021/01/28 04:51:09;;;;;;;4.75;3.45;;;;;;;4.85;61.37;100207.41;8003410;28;20754;-64
2021/01/28 04:55:13;;;;;;;3.90;2.53;;;;;;;4.84;61.25;100197.06;7984968;28;20457;-64
2021/01/28 04:59:42;;;;;;;4.68;3.20;;;;;;;4.81;61.40;100176.44;7984983;28;20509;-65
2021/01/28 05:03:43;;;;;;;3.38;2.60;;;;;;;4.80;61.53;100165.19;7949147;28;20513;-66
2021/01/28 05:07:55;;;;;;;4.68;2.75;;;;;;;4.74;61.40;100142.91;8002895;28;20037;-64
2021/01/28 05:12:06;;;;;;;3.45;2.40;;;;;;;4.72;61.45;100131.75;8003088;28;20540;-64
2021/01/28 05:16:38;;;;;;;5.80;2.10;;;;;;;4.70;61.38;100131.00;7968304;28;20102;-65
2021/01/28 05:21:11;;;;;;;2.97;2.28;;;;;;;4.65;61.38;100108.72;7931204;28;20065;-64
2021/01/28 05:25:29;;;;;;;4.18;2.63;;;;;;;4.61;61.55;100107.22;7966677;28;20357;-65
2021/01/28 05:29:40;;;;;;;2.92;2.20;;;;;;;4.60;61.52;100100.34;7982855;28;20524;-64
2021/01/28 05:33:40;;;;;;;2.88;2.55;;;;;;;4.60;61.31;100092.56;7949795;28;20048;-66
2021/01/28 05:38:08;;;;;;;2.80;2.03;;;;;;;4.58;61.45;100073.56;7969883;28;20049;-64
2021/01/28 05:42:32;;;;;;;2.42;2.10;;;;;;;4.56;61.21;100065.03;7951511;28;20048;-65
2021/01/28 05:46:33;;;;;;;4.55;2.10;;;;;;;4.51;61.47;100051.41;7969446;28;20046;-65
2021/01/28 05:51:14;;;;;;;3.67;1.80;;;;;;;4.49;61.40;100043.69;7958342;28;20068;-65
2021/01/28 05:55:10;;;;;;;2.63;1.80;;;;;;;4.49;61.47;100022.88;7975036;28;20095;-64
2021/01/28 05:59:22;;;;;;;2.28;1.65;;;;;;;4.47;61.48;100022.16;7990647;28;20048;-65
2021/01/28 06:03:45;;;;;;;2.97;1.83;;;;;;;4.48;61.43;100013.41;7986013;28;20037;-64
2021/01/28 06:08:28;;;;;;;2.27;1.47;;;;;;;4.45;61.55;99994.53;7990985;28;20156;-64
2021/01/28 06:12:47;;;;;;;1.77;1.45;;;;;;;4.44;61.56;99985.06;7974676;28;20068;-63
2021/01/28 06:17:24;;;;;;;2.67;1.83;;;;;;;4.43;61.76;99978.19;7985312;28;20049;-65
2021/01/28 06:21:59;;;;;;;3.03;1.98;;;;;;;4.42;61.69;99966.09;7987716;28;20047;-65
2021/01/28 06:26:42;;;;;;;2.80;2.10;;;;;;;4.44;61.74;99956.47;7964599;28;20044;-66
2021/01/28 06:30:48;;;;;;;2.33;2.05;;;;;;;4.41;61.61;99948.81;7984886;28;20056;-65
2021/01/28 06:35:31;;;;;;;3.47;2.70;;;;;;;4.42;61.70;99948.72;7991163;28;20083;-64
2021/01/28 06:39:47;;;;;;;2.50;2.10;;;;;;;4.42;61.68;99930.53;8006914;28;20102;-65
2021/01/28 06:44:25;;;;;;;2.83;2.03;;;;;;;4.39;61.63;99917.69;7988949;28;20294;-65
2021/01/28 06:49:19;;;;;;;2.33;2.00;;;;;;;4.38;61.63;99905.63;8006145;28;20107;-65
2021/01/28 06:53:20;;;;;;;3.95;2.28;;;;;;;4.37;61.63;99896.13;7972911;28;20037;-64
2021/01/28 06:57:56;;;;;;;3.55;1.92;;;;;;;4.37;61.50;99892.69;8000892;28;20036;-65
2021/01/28 07:02:36;;;;;;;3.17;2.00;;;;;;;4.33;61.38;99878.19;7984182;28;20083;-65
2021/01/28 07:07:14;;;;;;;4.25;2.30;;;;;;;4.28;61.59;99855.88;7988683;28;20029;-65
2021/01/28 07:11:39;;;;;;;2.92;1.75;;;;;;;4.29;61.64;99854.13;8005028;28;20048;-64
2021/01/28 07:16:17;;;;;;;2.65;1.80;;;;;;;4.26;61.61;99833.50;8001569;28;20044;-63
2021/01/28 07:20:34;;;;;;;2.92;1.80;;;;;;;4.26;61.70;99815.31;8005206;28;20044;-64
2021/01/28 07:24:38;;;;;;;2.33;1.70;;;;;;;4.22;61.59;99806.00;7985755;28;20036;-66
2021/01/28 07:28:31;;;;;;;3.30;2.15;;;;;;;4.23;62.01;99803.28;7987587;28;20041;-65
2021/01/28 07:32:27;;;;;;;2.85;1.80;;;;;;;4.22;61.52;99798.19;7981295;28;20052;-64
2021/01/28 07:36:48;;;;;;;2.92;1.70;;;;;;;4.19;61.48;99794.00;7956649;28;20067;-65
2021/01/28 07:41:16;;;;;;;2.08;1.58;;;;;;;4.20;61.68;99784.44;7888343;28;20041;-65
2021/01/28 07:45:36;;;;;;;2.97;1.65;;;;;;;4.18;61.59;99770.72;7968887;28;20053;-64
2021/01/28 07:49:59;;;;;;;2.92;1.75;;;;;;;4.17;61.80;99766.44;7983046;28;20048;-64
2021/01/28 07:54:05;;;;;;;2.17;1.75;;;;;;;4.16;61.66;99754.34;7999838;28;20029;-65
2021/01/28 07:57:58;;;;;;;2.30;1.63;;;;;;;4.15;61.92;99747.50;8002321;28;20047;-64
2021/01/28 08:01:56;;;;;;;2.10;1.70;;;;;;;4.14;61.66;99746.66;8001282;28;20068;-65
2021/01/28 08:05:53;;;;;;;2.47;1.50;;;;;;;4.13;61.53;99738.94;8002725;28;20047;-63
2021/01/28 08:09:47;;;;;;;1.60;1.50;;;;;;;4.09;61.50;99730.47;7986169;28;20056;-65
2021/01/28 08:13:40;;;;;;;2.08;1.48;;;;;;;4.12;61.76;99735.50;7984533;28;20037;-65
2021/01/28 08:17:33;;;;;;;2.85;1.98;;;;;;;4.12;62.00;99727.69;7985533;28;20410;-65
2021/01/28 08:21:26;;;;;;;2.03;1.60;;;;;;;4.15;61.76;99711.91;8002558;28;20285;-64
2021/01/28 08:25:21;;;;;;;2.17;1.75;;;;;;;4.15;61.69;99701.53;7985039;28;20444;-65
2021/01/28 08:29:19;;;;;;;2.53;1.67;;;;;;;4.17;61.71;99706.66;8004167;28;20255;-65
2021/01/28 08:33:23;;;;;;;2.00;1.70;;;;;;;4.16;61.88;99700.59;7999774;28;20386;-64
2021/01/28 08:37:18;;;;;;;1.85;1.40;;;;;;;4.17;61.84;99696.25;8002734;28;20449;-63
2021/01/28 08:41:20;;;;;;;1.75;1.27;;;;;;;4.15;61.85;99688.53;8003510;28;20639;-65
2021/01/28 08:45:24;;;;;;;1.60;1.48;;;;;;;4.14;61.96;99680.84;8002643;28;20505;-66
2021/01/28 08:49:20;;;;;;;1.50;1.15;;;;;;;4.14;61.95;99673.03;7986407;28;20634;-64
2021/01/28 08:53:24;;;;;;;2.72;1.77;;;;;;;4.16;61.79;99672.00;7994429;28;20527;-65
2021/01/28 08:57:20;;;;;;;1.83;1.40;;;;;;;4.16;61.81;99659.00;7982298;28;20773;-64
2021/01/28 09:01:14;;;;;;;1.67;1.15;;;;;;;4.14;61.74;99639.25;7998662;28;20045;-64
2021/01/28 09:05:18;;;;;;;3.03;1.17;;;;;;;4.17;61.98;99639.91;7972111;28;20029;-64
2021/01/28 09:09:18;;;;;;;1.95;1.30;;;;;;;4.12;61.86;99631.53;7989191;28;20068;-65
2021/01/28 09:13:20;;;;;;;2.08;1.58;;;;;;;4.16;61.74;99620.03;8000418;28;20028;-64
2021/01/28 09:17:45;;;;;;;4.73;1.60;;;;;;;4.14;61.86;99619.28;7999014;28;20792;-64
2021/01/28 09:21:42;;;;;;;5.20;1.40;;;;;;;4.15;61.95;99599.34;7947927;28;20041;-65
2021/01/28 09:25:36;;;;;;;1.63;1.30;;;;;;;4.13;61.76;99594.22;8007622;28;20104;-64
2021/01/28 09:29:38;;;;;;;4.03;1.30;;;;;;;4.15;61.96;99588.94;7958361;28;20529;-65
2021/01/28 09:33:39;;;;;;;1.65;1.08;;;;;;;4.17;61.98;99600.06;7981241;28;20073;-63
2021/01/28 09:37:32;;;;;;;1.58;1.23;;;;;;;4.15;61.73;99594.16;7996508;28;20046;-63
2021/01/28 09:41:33;;;;;;;2.47;1.20;;;;;;;4.16;61.88;99590.59;7989933;28;20025;-64
2021/01/28 09:45:26;;;;;;;1.33;1.23;;;;;;;4.16;62.01;99591.44;7992999;28;20045;-65
2021/01/28 09:49:21;;;;;;;1.05;0.95;;;;;;;4.17;62.07;99592.28;7995672;28;20033;-65
2021/01/28 09:53:16;;;;;;;1.20;1.10;;;;;;;4.16;61.99;99594.03;7996206;28;20041;-65
2021/01/28 09:57:07;;;;;;;2.47;1.42;;;;;;;4.21;61.94;99591.16;7997036;28;20041;-66
2021/01/28 10:01:01;;;;;;;1.60;1.10;;;;;;;4.23;62.07;99590.13;7992277;28;20107;-64
2021/01/28 10:04:56;;;;;;;1.20;1.00;;;;;;;4.21;62.04;99584.19;7995284;28;20041;-65
2021/01/28 10:08:48;;;;;;;2.17;1.40;;;;;;;4.21;62.19;99580.75;7995108;28;20040;-66
2021/01/28 10:12:40;;;;;;;2.25;1.30;;;;;;;4.26;62.14;99576.13;7995472;28;20061;-62
2021/01/28 10:16:32;;;;;;;1.48;1.05;;;;;;;4.28;62.14;99564.69;7994691;28;20041;-65
2021/01/28 10:20:24;;;;;;;1.70;1.30;;;;;;;4.32;62.44;99559.34;7995745;28;20033;-64
2021/01/28 10:24:19;;;;;;;2.03;1.48;;;;;;;4.35;62.12;99554.78;7995736;28;20110;-62
2021/01/28 10:28:13;;;;;;;1.63;1.20;;;;;;;4.35;62.24;99538.34;7996432;28;20040;-65
2021/01/28 10:32:07;;;;;;;2.55;1.25;;;;;;;4.46;62.37;99543.72;7991796;28;20048;-65
2021/01/28 10:35:59;;;;;;;2.03;1.50;;;;;;;4.47;62.25;99535.81;7994316;28;20017;-66
2021/01/28 10:39:50;;;;;;;2.15;1.10;;;;;;;4.50;62.14;99533.03;7996193;28;20565;-64
2021/01/28 10:43:41;;;;;;;3.78;1.67;;;;;;;4.53;62.24;99532.00;7994658;28;20067;-63
2021/01/28 10:47:33;;;;;;;2.55;1.98;;;;;;;4.54;62.24;99531.06;7947645;28;20041;-65
2021/01/28 10:51:26;;;;;;;4.65;1.95;;;;;;;4.59;62.26;99516.00;7992579;28;20102;-63
2021/01/28 10:55:19;;;;;;;4.50;2.33;;;;;;;4.62;62.44;99516.66;7995362;28;20069;-65
2021/01/28 10:59:11;;;;;;;2.60;1.55;;;;;;;4.63;62.36;99504.50;7994472;28;20045;-64
2021/01/28 11:03:02;;;;;;;1.55;1.40;;;;;;;4.71;62.54;99510.88;7989906;28;20075;-63
2021/01/28 11:06:56;;;;;;;4.63;1.45;;;;;;;4.76;62.47;99507.16;7994079;28;20856;-64
2021/01/28 11:10:48;;;;;;;2.15;1.40;;;;;;;4.76;62.46;99488.94;7992623;28;20041;-64
2021/01/28 11:14:39;;;;;;;1.63;1.42;;;;;;;4.84;62.24;99492.72;7990408;28;20039;-64
2021/01/28 11:18:35;;;;;;;3.67;1.38;;;;;;;4.87;62.57;99487.31;7991983;28;20045;-61
2021/01/28 11:22:28;;;;;;;1.20;1.10;;;;;;;4.91;62.29;99486.19;7991449;28;20044;-64
2021/01/28 11:26:20;;;;;;;1.73;1.40;;;;;;;4.94;62.36;99487.78;7991607;28;20037;-65
2021/01/28 11:30:13;;;;;;;3.88;1.27;;;;;;;4.95;62.36;99472.03;7990361;28;20037;-63
2021/01/28 11:34:05;;;;;;;1.67;1.00;;;;;;;4.95;62.38;99460.78;7992745;28;20025;-62
2021/01/28 11:38:04;;;;;;;2.40;1.20;;;;;;;5.06;62.40;99476.56;7991964;28;20102;-64
2021/01/28 11:42:17;;;;;;;1.10;1.00;;;;;;;5.04;62.58;99470.59;7966673;28;21782;-64
2021/01/28 11:46:09;;;;;;;3.63;1.33;;;;;;;5.04;62.18;99478.41;7984366;28;20041;-65
2021/01/28 11:50:01;;;;;;;2.75;1.80;;;;;;;5.03;62.20;99476.75;7959887;28;20040;-63
2021/01/28 11:54:05;;;;;;;8.52;2.22;;;;;;;5.06;62.41;99463.56;7984509;28;20060;-61
2021/01/28 11:58:03;;;;;;;4.97;2.45;;;;;;;5.07;62.19;99462.59;7982458;28;20039;-62
2021/01/28 12:01:57;;;;;;;2.28;1.60;;;;;;;5.10;62.59;99450.19;7988598;28;20106;-64
2021/01/28 12:05:48;;;;;;;0.85;0.85;;;;;;;5.15;62.68;99439.53;7992699;28;20676;-63
2021/01/28 12:09:40;;;;;;;1.40;1.30;;;;;;;5.21;62.46;99448.72;7989761;28;20064;-65
2021/01/28 12:13:34;;;;;;;2.10;1.10;;;;;;;5.27;62.62;99448.31;7976873;28;20032;-64
2021/01/28 12:17:38;;;;;;;0.80;0.80;;;;;;;5.30;62.59;99464.56;7986066;28;20041;-64
2021/01/28 12:21:30;;;;;;;1.83;1.02;;;;;;;5.32;62.34;99472.25;7990167;28;20685;-63
2021/01/28 12:25:21;;;;;;;1.33;1.02;;;;;;;5.36;62.32;99455.50;7990998;28;20017;-63
2021/01/28 12:29:16;;;;;;;1.27;0.90;;;;;;;5.33;62.52;99455.69;7986025;28;20037;-65
2021/01/28 12:33:07;;;;;;;3.03;1.00;;;;;;;5.39;62.51;99463.13;7980433;28;20044;-65
2021/01/28 12:37:05;;;;;;;1.17;1.00;;;;;;;5.41;62.34;99464.69;7986146;28;20535;-65
2021/01/28 12:40:59;;;;;;;1.05;0.90;;;;;;;5.46;62.55;99470.41;7990892;28;20041;-62
2021/01/28 12:44:51;;;;;;;1.10;1.00;;;;;;;5.49;62.70;99458.94;7982387;28;20603;-64
2021/01/28 12:48:52;;;;;;;1.30;0.90;;;;;;;5.46;62.63;99456.56;7989750;28;20052;-64
2021/01/28 12:52:43;;;;;;;1.15;0.93;;;;;;;5.53;62.40;99452.59;7991506;28;20037;-64
2021/01/28 12:56:35;;;;;;;1.25;1.15;;;;;;;5.56;62.42;99444.56;7992122;28;20826;-65
2021/01/28 13:00:29;;;;;;;2.67;1.63;;;;;;;5.57;62.58;99443.63;7981561;28;20033;-65
2021/01/28 13:04:20;;;;;;;1.40;1.30;;;;;;;5.64;62.41;99461.34;7997366;28;20047;-65
2021/01/28 13:08:13;;;;;;;1.77;1.13;;;;;;;5.68;62.60;99453.34;7991758;28;20420;-61
2021/01/28 13:12:12;;;;;;;2.03;1.40;;;;;;;5.68;62.44;99462.00;7986604;28;20041;-63
2021/01/28 13:16:06;;;;;;;1.50;0.97;;;;;;;5.68;62.43;99458.56;7983361;28;20729;-65
2021/01/28 13:20:14;;;;;;;1.42;1.10;;;;;;;5.75;62.49;99478.03;7995156;28;20041;-64
2021/01/28 13:24:08;;;;;;;1.15;1.05;;;;;;;5.76;62.65;99504.00;7991502;28;20045;-67
2021/01/28 13:28:02;;;;;;;0.75;0.75;;;;;;;5.77;62.38;99478.75;7990929;28;22119;-64
2021/01/28 13:31:52;;;;;;;0.90;0.90;;;;;;;5.80;62.54;99492.44;7988157;28;20036;-64
2021/01/28 13:35:43;;;;;;;0.70;0.70;;;;;;;5.82;62.53;99494.91;7980291;28;20693;-64
2021/01/28 13:39:34;;;;;;;1.42;0.90;;;;;;;5.83;62.69;99492.22;7990977;28;20032;-64
2021/01/28 13:43:29;;;;;;;0.98;0.88;;;;;;;5.84;62.61;99495.66;7977333;28;20029;-65
2021/01/28 13:47:21;;;;;;;0.90;0.90;;;;;;;5.86;62.55;99501.59;7988902;28;20045;-65
2021/01/28 13:51:11;;;;;;;2.38;1.08;;;;;;;5.84;62.42;99493.88;7988058;28;20808;-64
2021/01/28 13:55:02;;;;;;;1.27;1.17;;;;;;;5.87;62.72;99501.50;7990584;28;20045;-66
2021/01/28 13:58:53;;;;;;;2.28;1.45;;;;;;;5.91;62.60;99515.16;7988894;28;20029;-67
2021/01/28 14:02:48;;;;;;;2.88;1.60;;;;;;;5.95;62.82;99514.00;7986250;28;20082;-65
2021/01/28 14:06:38;;;;;;;1.83;1.10;;;;;;;6.00;62.52;99515.38;7992106;28;20690;-67
2021/01/28 14:10:31;;;;;;;1.33;1.00;;;;;;;6.01;62.67;99504.00;7994149;28;20049;-65
2021/01/28 14:14:22;;;;;;;1.33;1.00;;;;;;;6.01;62.82;99522.25;7994546;28;20386;-66
2021/01/28 14:18:16;;;;;;;0.80;0.80;;;;;;;5.99;62.63;99531.09;7989378;28;20048;-67
2021/01/28 14:22:06;;;;;;;1.60;1.10;;;;;;;5.99;62.49;99524.13;7996308;28;20650;-64
2021/01/28 14:25:57;;;;;;;0.70;0.70;;;;;;;5.97;62.40;99520.75;7981178;28;20086;-66
2021/01/28 14:29:48;;;;;;;0.93;0.90;;;;;;;6.01;62.36;99539.66;7995197;28;20029;-66
2021/01/28 14:33:38;;;;;;;4.07;2.30;;;;;;;5.99;62.46;99539.75;7993707;28;20424;-64
2021/01/28 14:37:29;;;;;;;3.20;1.70;;;;;;;5.98;62.61;99548.50;7996088;28;20096;-65
2021/01/28 14:41:20;;;;;;;1.85;0.90;;;;;;;5.99;62.48;99544.13;7995205;28;20033;-66
2021/01/28 14:45:11;;;;;;;0.70;0.70;;;;;;;5.98;62.26;99547.66;7994379;28;20102;-66
2021/01/28 14:49:01;;;;;;;0.80;0.80;;;;;;;5.95;62.12;99561.75;7995580;28;20040;-66
2021/01/28 14:52:52;;;;;;;0.88;0.88;;;;;;;5.93;62.25;99575.84;7995170;28;20299;-68
2021/01/28 14:56:44;;;;;;;0.80;0.70;;;;;;;5.90;62.17;99583.84;7994585;28;20032;-64
2021/01/28 15:00:35;;;;;;;0.80;0.80;;;;;;;5.88;62.20;99589.19;7984866;28;20059;-64
2021/01/28 15:04:25;;;;;;;1.30;1.00;;;;;;;5.86;62.36;99587.59;7994265;28;20041;-64
2021/01/28 15:08:18;;;;;;;0.90;0.80;;;;;;;5.84;62.05;99600.75;7996543;28;20041;-66
2021/01/28 15:12:09;;;;;;;1.20;0.90;;;;;;;5.83;61.96;99603.44;7993102;28;20037;-66
2021/01/28 15:15:59;;;;;;;1.13;1.02;;;;;;;5.82;62.42;99620.00;7992795;28;20608;-65
2021/01/28 15:19:50;;;;;;;1.73;1.35;;;;;;;5.82;61.40;99633.03;7983012;28;20037;-65
2021/01/28 15:23:41;;;;;;;1.23;1.02;;;;;;;5.77;62.02;99632.50;7996782;28;20604;-64
2021/01/28 15:27:31;;;;;;;1.50;1.40;;;;;;;5.80;62.18;99651.41;7993972;28;20043;-66
2021/01/28 15:31:22;;;;;;;1.23;1.13;;;;;;;5.80;62.22;99645.34;7990803;28;20137;-66
2021/01/28 15:35:13;;;;;;;2.55;1.60;;;;;;;5.78;62.06;99661.06;7994497;28;20045;-66
2021/01/28 15:39:05;;;;;;;1.33;1.20;;;;;;;5.82;61.93;99667.75;7991745;28;20800;-64
2021/01/28 15:42:55;;;;;;;3.15;1.52;;;;;;;5.82;62.08;99679.94;7993629;28;20036;-64
2021/01/28 15:46:46;;;;;;;1.20;1.10;;;;;;;5.81;62.20;99679.09;7980509;28;20107;-67
2021/01/28 15:50:37;;;;;;;2.05;1.20;;;;;;;5.80;62.38;99684.44;7992476;28;20039;-65
2021/01/28 15:54:27;;;;;;;1.33;1.10;;;;;;;5.79;62.21;99693.19;7979180;28;21843;-64
2021/01/28 15:58:18;;;;;;;1.65;1.35;;;;;;;5.78;62.35;99700.16;7993706;28;20037;-66
2021/01/28 16:02:10;;;;;;;1.35;1.08;;;;;;;5.79;62.12;99701.84;7988448;28;20068;-65
2021/01/28 16:06:00;;;;;;;1.73;1.20;;;;;;;5.78;62.36;99707.16;7994266;28;20041;-64
2021/01/28 16:09:51;;;;;;;0.80;0.80;;;;;;;5.78;62.54;99712.34;7993171;28;20079;-67
2021/01/28 16:13:41;;;;;;;1.25;1.15;;;;;;;5.78;62.35;99713.19;7992539;28;20039;-64
2021/01/28 16:17:32;;;;;;;1.40;1.17;;;;;;;5.78;62.26;99720.16;7992177;28;20044;-64
2021/01/28 16:21:23;;;;;;;1.08;0.98;;;;;;;5.78;62.34;99726.22;7993170;28;20043;-67
2021/01/28 16:25:16;;;;;;;1.52;1.30;;;;;;;5.75;62.13;99728.19;7991430;28;20052;-66
2021/01/28 16:29:06;;;;;;;2.40;1.80;;;;;;;5.76;61.98;99735.94;7982207;28;20493;-67
2021/01/28 16:33:15;;;;;;;1.90;1.58;;;;;;;5.74;62.20;99737.78;7988769;28;20041;-66
2021/01/28 16:37:07;;;;;;;2.88;2.20;;;;;;;5.76;62.16;99740.28;7982816;28;20110;-68
2021/01/28 16:40:57;;;;;;;1.50;1.20;;;;;;;5.75;62.28;99736.84;7992204;28;20040;-64
2021/01/28 16:44:53;;;;;;;2.25;1.90;;;;;;;5.73;62.40;99745.69;7993010;28;20075;-67
2021/01/28 16:48:47;;;;;;;2.30;1.75;;;;;;;5.72;62.31;99755.28;7993534;28;20044;-67
2021/01/28 16:52:37;;;;;;;4.20;2.45;;;;;;;5.74;61.92;99763.84;7991118;28;20083;-66
2021/01/28 16:56:28;;;;;;;3.85;2.30;;;;;;;5.73;62.04;99767.38;7991386;28;20045;-66
2021/01/28 17:00:19;;;;;;;2.75;1.70;;;;;;;5.73;61.97;99767.38;7989319;28;20117;-66
2021/01/28 17:04:10;;;;;;;2.63;1.90;;;;;;;5.71;61.87;99765.81;7987436;28;20033;-63
2021/01/28 17:08:01;;;;;;;2.80;2.20;;;;;;;5.73;61.90;99769.13;7992458;28;20048;-64
2021/01/28 17:11:52;;;;;;;2.33;2.00;;;;;;;5.73;61.77;99776.94;7989066;28;20094;-64
2021/01/28 17:15:43;;;;;;;2.38;1.90;;;;;;;5.69;62.01;99781.53;7977449;28;20040;-68
2021/01/28 17:19:33;;;;;;;3.53;2.35;;;;;;;5.69;62.16;99785.91;7991258;28;20039;-69
2021/01/28 17:23:24;;;;;;;4.38;2.78;;;;;;;5.71;62.12;99784.88;7989365;28;20396;-64
2021/01/28 17:27:14;;;;;;;3.05;2.28;;;;;;;5.71;62.06;99784.03;7989760;28;20047;-64
2021/01/28 17:31:05;;;;;;;4.05;2.55;;;;;;;5.71;61.82;99795.31;7986658;28;20056;-65
2021/01/28 17:34:56;;;;;;;3.55;2.65;;;;;;;5.68;62.03;99792.06;7990367;28;20033;-63
2021/01/28 17:38:48;;;;;;;2.88;2.17;;;;;;;5.67;61.93;99798.19;7990466;28;20048;-65
2021/01/28 17:42:39;;;;;;;3.33;2.60;;;;;;;5.65;62.06;99796.53;7993235;28;20032;-63
2021/01/28 17:46:30;;;;;;;3.78;2.58;;;;;;;5.69;61.94;99798.94;7995713;28;20268;-64
2021/01/28 17:50:22;;;;;;;3.42;2.13;;;;;;;5.68;62.23;99803.31;7996748;28;20576;-64
2021/01/28 17:54:14;;;;;;;3.10;2.22;;;;;;;5.67;62.02;99814.69;7995499;28;20029;-64
2021/01/28 17:58:06;;;;;;;4.13;2.90;;;;;;;5.65;62.01;99814.75;7996071;28;20044;-65
2021/01/28 18:01:56;;;;;;;3.75;2.17;;;;;;;5.68;62.42;99820.72;7992003;28;20099;-65
2021/01/28 18:05:47;;;;;;;4.50;2.33;;;;;;;5.61;62.15;99802.00;7988112;28;20037;-70
2021/01/28 18:09:38;;;;;;;3.42;2.40;;;;;;;5.64;61.76;99823.50;7995038;28;20041;-67
2021/01/28 18:13:29;;;;;;;2.92;2.40;;;;;;;5.63;61.83;99842.69;7998496;28;20029;-69
2021/01/28 18:17:20;;;;;;;3.97;2.88;;;;;;;5.59;62.01;99832.56;7995138;28;20052;-68
2021/01/28 18:21:10;;;;;;;5.30;2.78;;;;;;;5.64;61.89;99835.72;7986816;28;20047;-68
2021/01/28 18:25:01;;;;;;;4.13;2.80;;;;;;;5.63;62.04;99824.47;7995381;28;20037;-67
2021/01/28 18:28:51;;;;;;;4.00;2.50;;;;;;;5.60;62.18;99829.84;7995001;28;20079;-68
2021/01/28 18:32:42;;;;;;;3.50;2.42;;;;;;;5.65;62.00;99827.78;7984434;28;20041;-68
2021/01/28 18:36:33;;;;;;;7.15;3.22;;;;;;;5.65;62.11;99821.72;7994580;28;20553;-65
2021/01/28 18:40:23;;;;;;;8.25;2.63;;;;;;;5.65;62.05;99832.16;7997888;28;20078;-67
2021/01/28 18:44:15;;;;;;;5.15;2.92;;;;;;;5.65;62.15;99822.56;7993647;28;21162;-67
2021/01/28 18:48:06;;;;;;;5.00;3.03;;;;;;;5.63;61.98;99829.66;7994977;28;20136;-68
2021/01/28 18:51:57;;;;;;;5.55;2.70;;;;;;;5.63;61.97;99826.22;7994603;28;20036;-68
2021/01/28 18:55:49;;;;;;;5.45;3.35;;;;;;;5.59;62.16;99828.19;7994729;28;20623;-67
2021/01/28 18:59:39;;;;;;;5.13;2.92;;;;;;;5.64;61.78;99833.91;7997007;28;20029;-67